Time;durP1;ratioP1;P1;durP2;ratioP2;P2;SDS_P1;SDS_P2;PMS_P1;PMS_P2;Temp;Humidity;BMP_temperature;BMP_pressure;BME280_temperature;BME280_humidity;BME280_pressure;Samples;Min_cycle;Max_cycle;Signal;HPM_P1;HPM_P2
2022/12/11 00:02:12;;;;;;;22.27;9.23;;;-6.00;1.00;-5.90;93069.00;;;;7398493;19;20143;-74
2022/12/11 00:04:39;;;;;;;14.77;8.70;;;-6.10;1.00;-5.80;93105.00;;;;7398614;19;20151;-74
2022/12/11 00:07:13;;;;;;;15.87;9.13;;;-6.10;1.00;-6.10;93104.00;;;;7399830;19;20136;-73
2022/12/11 00:09:40;;;;;;;17.40;8.50;;;-6.20;1.00;-6.10;93092.00;;;;7397805;19;20148;-73
2022/12/11 00:12:07;;;;;;;16.73;8.37;;;-6.30;1.00;-6.30;93094.00;;;;7399702;19;20585;-73
2022/12/11 00:14:41;;;;;;;18.33;9.13;;;-6.40;1.00;-6.40;93077.00;;;;7399066;19;20618;-73
2022/12/11 00:17:08;;;;;;;16.10;8.77;;;-6.50;1.00;-6.40;93096.00;;;;7398927;19;20471;-74
2022/12/11 00:19:35;;;;;;;18.00;8.73;;;-6.60;1.00;-6.40;93101.00;;;;7399101;19;20154;-74
2022/12/11 00:22:09;;;;;;;18.03;8.73;;;-6.60;1.00;-6.40;93099.00;;;;7399032;19;20141;-74
2022/12/11 00:24:36;;;;;;;18.80;10.07;;;-6.60;1.00;-6.60;93051.00;;;;7398781;19;20145;-73
2022/12/11 00:27:03;;;;;;;21.57;11.07;;;-6.70;1.00;-6.70;93080.00;;;;7399041;19;20151;-74
2022/12/11 00:29:37;;;;;;;15.30;8.27;;;-6.80;1.00;-6.40;93093.00;;;;7398614;19;20139;-73
2022/12/11 00:32:05;;;;;;;16.93;9.53;;;-6.80;1.00;-6.60;93063.00;;;;7400088;19;20125;-73
2022/12/11 00:34:32;;;;;;;15.47;8.80;;;-6.80;1.00;-6.40;93087.00;;;;7398577;19;20164;-73
2022/12/11 00:37:06;;;;;;;18.07;9.47;;;-6.80;1.00;-6.40;93048.00;;;;7399991;19;20143;-73
2022/12/11 00:39:33;;;;;;;18.13;9.47;;;-6.70;1.00;-6.20;93071.00;;;;7397208;19;20141;-73
2022/12/11 00:42:00;;;;;;;17.40;9.17;;;-6.60;1.00;-6.20;93089.00;;;;7399818;19;20133;-74
2022/12/11 00:44:35;;;;;;;17.27;9.37;;;-6.60;1.00;-5.80;93072.00;;;;7399265;19;20132;-73
2022/12/11 00:47:03;;;;;;;19.80;11.30;;;-6.30;1.00;-6.00;93064.00;;;;7398164;19;20489;-73
2022/12/11 00:49:30;;;;;;;18.97;10.10;;;-6.20;1.00;-6.00;93065.00;;;;7389854;19;20774;-74
2022/12/11 00:52:04;;;;;;;19.60;9.43;;;-6.20;1.00;-5.90;93107.00;;;;7396171;19;20144;-73
2022/12/11 00:54:39;;;;;;;18.77;10.47;;;-6.20;1.00;-5.90;93059.00;;;;7397264;19;20464;-73
2022/12/11 00:57:13;;;;;;;20.27;11.37;;;-6.10;1.00;-5.90;93053.00;;;;7399318;19;20133;-74
2022/12/11 00:59:40;;;;;;;21.67;10.70;;;-6.10;1.00;-5.70;93090.00;;;;7398912;19;20145;-73
2022/12/11 01:02:07;;;;;;;32.13;13.23;;;-6.00;1.00;-5.60;93097.00;;;;7395627;19;20137;-73
2022/12/11 01:04:41;;;;;;;23.43;11.47;;;-5.90;1.00;-5.70;93094.00;;;;7399329;19;20149;-73
2022/12/11 01:07:08;;;;;;;22.27;11.33;;;-5.90;1.00;-5.70;93068.00;;;;7398056;19;20148;-73
2022/12/11 01:12:28;;;;;;;22.23;11.77;;;-5.80;1.00;-5.70;93081.00;;;;7393926;19;20593;-73
2022/12/11 01:14:55;;;;;;;25.90;13.17;;;-5.80;1.00;-5.80;93096.00;;;;7394235;19;20172;-73
2022/12/11 01:17:22;;;;;;;28.57;13.50;;;-5.90;1.00;-5.80;93117.00;;;;7398698;19;20125;-74
2022/12/11 01:19:56;;;;;;;27.73;13.63;;;-5.90;1.00;-5.70;93106.00;;;;7398773;19;20142;-74
2022/12/11 01:22:23;;;;;;;30.17;13.67;;;-5.90;1.00;-5.60;93104.00;;;;7396154;19;20513;-74
2022/12/11 01:24:50;;;;;;;32.03;14.57;;;-5.80;1.00;-5.50;93102.00;;;;7397139;19;20148;-74
2022/12/11 01:27:24;;;;;;;34.07;14.70;;;-5.80;1.00;-5.40;93106.00;;;;7396475;19;20612;-74
2022/12/11 01:29:51;;;;;;;35.23;15.80;;;-5.70;1.00;-5.30;93117.00;;;;7395257;19;20150;-74
2022/12/11 01:32:18;;;;;;;35.13;16.40;;;-5.60;1.00;-5.10;93122.00;;;;7396393;19;20163;-73
2022/12/11 01:34:52;;;;;;;31.03;15.77;;;-5.40;1.00;-5.20;93106.00;;;;7396789;19;20139;-73
2022/12/11 01:37:20;;;;;;;32.37;16.90;;;-5.40;1.00;-5.20;93094.00;;;;7397858;19;20163;-74
2022/12/11 01:39:47;;;;;;;39.77;16.53;;;-5.40;1.00;-5.20;93121.00;;;;7397589;19;20597;-74
2022/12/11 01:42:20;;;;;;;39.33;17.10;;;-5.40;1.00;-5.20;93109.00;;;;7393119;19;20154;-74
2022/12/11 01:44:50;;;;;;;39.07;17.73;;;-5.30;1.00;-5.10;93139.00;;;;7396336;19;20678;-74
2022/12/11 01:47:17;;;;;;;41.57;19.00;;;-5.20;1.00;-5.10;93153.00;;;;7396456;19;20147;-74
2022/12/11 01:49:50;;;;;;;42.87;17.57;;;-5.20;1.00;-5.10;93133.00;;;;7395741;19;20210;-74
2022/12/11 01:52:21;;;;;;;37.03;17.40;;;-5.20;1.00;-4.90;93117.00;;;;7398126;19;20137;-74
2022/12/11 01:54:50;;;;;;;41.10;18.17;;;-5.10;1.00;-5.00;93135.00;;;;7395303;19;20146;-74
2022/12/11 01:57:24;;;;;;;45.30;18.57;;;-5.20;1.00;-5.00;93137.00;;;;7395956;19;20140;-74
2022/12/11 01:59:51;;;;;;;44.57;18.87;;;-5.20;1.00;-5.00;93136.00;;;;7395566;19;20142;-74
2022/12/11 02:02:25;;;;;;;47.97;20.50;;;-5.10;1.00;-5.10;93105.00;;;;7397476;19;20113;-74
2022/12/11 02:05:00;;;;;;;49.80;19.57;;;-5.10;1.00;-5.10;93130.00;;;;7397471;19;20481;-74
2022/12/11 02:07:36;;;;;;;45.07;19.13;;;-5.10;1.00;-5.20;93110.00;;;;7397332;19;20599;-74
2022/12/11 02:10:11;;;;;;;43.43;18.20;;;-5.20;1.00;-5.10;93141.00;;;;7395006;19;20611;-74
2022/12/11 02:13:05;;;;;;;46.40;20.03;;;-5.20;1.00;-5.20;93147.00;;;;7395501;19;20148;-74
2022/12/11 02:16:05;;;;;;;44.43;18.60;;;-5.20;1.00;-4.90;93118.00;;;;7395364;19;20499;-74
2022/12/11 02:18:46;;;;;;;48.23;20.00;;;-5.20;1.00;-5.20;93120.00;;;;7397309;19;20161;-74
2022/12/11 02:21:46;;;;;;;47.90;20.70;;;-5.30;1.00;-5.30;93140.00;;;;7394792;19;20165;-74
2022/12/11 02:24:31;;;;;;;48.60;19.87;;;-5.30;1.00;-5.40;93142.00;;;;7395067;19;20619;-74
2022/12/11 02:27:29;;;;;;;44.77;19.43;;;-5.40;1.00;-5.50;93114.00;;;;7401638;19;20162;-74
2022/12/11 02:30:06;;;;;;;44.07;19.20;;;-5.50;1.00;-5.40;93136.00;;;;7401157;19;20145;-75
2022/12/11 02:32:53;;;;;;;45.03;19.37;;;-5.50;1.00;-5.30;93137.00;;;;7402510;19;20208;-74
2022/12/11 02:35:25;;;;;;;56.63;20.50;;;-5.50;1.00;-5.50;93138.00;;;;7399642;19;20141;-74
2022/12/11 02:38:07;;;;;;;47.17;19.40;;;-5.60;1.00;-5.60;93155.00;;;;7402221;19;20137;-74
2022/12/11 02:40:39;;;;;;;50.43;21.87;;;-5.70;1.00;-5.40;93111.00;;;;7402729;19;20196;-74
2022/12/11 02:43:16;;;;;;;49.90;20.50;;;-5.60;1.00;-5.50;93145.00;;;;7402118;19;20145;-74
2022/12/11 02:45:45;;;;;;;48.73;20.23;;;-5.60;1.00;-5.20;93108.00;;;;7402322;19;20216;-74
2022/12/11 02:48:16;;;;;;;44.47;20.13;;;-5.60;1.00;-5.40;93143.00;;;;7401721;19;20126;-74
2022/12/11 02:50:56;;;;;;;49.27;19.93;;;-5.60;1.00;-5.50;93111.00;;;;7399877;19;20125;-74
2022/12/11 02:53:41;;;;;;;52.97;20.97;;;-5.60;1.00;-5.40;93144.00;;;;7400944;19;20544;-73
2022/12/11 02:56:25;;;;;;;42.23;20.00;;;-5.60;1.00;-5.30;93103.00;;;;7401926;19;20145;-75
2022/12/11 02:59:28;;;;;;;46.37;19.53;;;-5.60;1.00;-5.30;93100.00;;;;7402494;19;20120;-74
2022/12/11 03:02:04;;;;;;;44.10;18.80;;;-5.50;1.00;-5.00;93128.00;;;;7399869;19;20133;-74
2022/12/11 03:04:34;;;;;;;40.00;18.50;;;-5.40;1.00;-5.10;93123.00;;;;7401664;19;20121;-74
2022/12/11 03:07:14;;;;;;;45.90;19.00;;;-5.30;1.00;-4.90;93105.00;;;;7401688;19;20141;-74
2022/12/11 03:09:49;;;;;;;43.43;18.20;;;-5.20;1.00;-4.80;93130.00;;;;7400236;19;20125;-74
2022/12/11 03:12:28;;;;;;;45.67;19.73;;;-5.10;1.00;-4.70;93137.00;;;;7401497;19;20178;-74
2022/12/11 03:15:08;;;;;;;47.43;18.50;;;-5.10;1.00;-4.70;93137.00;;;;7399740;19;20189;-74
2022/12/11 03:18:08;;;;;;;46.03;19.57;;;-5.10;1.00;-4.50;93143.00;;;;7402301;19;20121;-74
2022/12/11 03:21:05;;;;;;;47.73;18.60;;;-5.00;1.00;-4.50;93141.00;;;;7402105;19;20120;-74
2022/12/11 03:23:48;;;;;;;46.17;19.43;;;-5.00;1.00;-4.60;93147.00;;;;7400518;19;20128;-74
2022/12/11 03:26:23;;;;;;;40.27;17.07;;;-5.00;1.00;-4.50;93124.00;;;;7400942;19;20135;-74
2022/12/11 03:28:58;;;;;;;42.67;18.77;;;-4.90;1.00;-4.40;93137.00;;;;7399717;19;20144;-74
2022/12/11 03:31:44;;;;;;;42.30;18.73;;;-4.90;1.00;-4.60;93104.00;;;;7399583;19;20125;-74
2022/12/11 03:34:28;;;;;;;37.37;16.87;;;-4.90;1.00;-4.70;93115.00;;;;7401970;19;20135;-73
2022/12/11 03:37:04;;;;;;;42.97;18.50;;;-4.90;1.00;-4.60;93140.00;;;;7399760;19;20145;-73
2022/12/11 03:39:39;;;;;;;40.10;17.90;;;-4.90;1.00;-4.50;93138.00;;;;7398746;19;20613;-74
2022/12/11 03:42:16;;;;;;;44.20;17.03;;;-4.90;1.00;-4.50;93128.00;;;;7395917;19;20173;-74
2022/12/11 03:44:48;;;;;;;45.47;18.53;;;-4.80;1.00;-4.40;93142.00;;;;7402037;19;20176;-74
2022/12/11 03:47:25;;;;;;;38.53;18.57;;;-4.80;1.00;-4.20;93153.00;;;;7401595;19;20133;-74
2022/12/11 03:49:55;;;;;;;38.63;16.60;;;-4.80;1.00;-4.30;93141.00;;;;7400761;19;20160;-74
2022/12/11 03:52:31;;;;;;;33.97;16.33;;;-4.80;1.00;-4.30;93128.00;;;;7399273;19;20500;-74
2022/12/11 03:55:07;;;;;;;39.50;18.17;;;-4.80;1.00;-4.20;93140.00;;;;7397113;19;20492;-74
2022/12/11 03:57:40;;;;;;;40.77;16.90;;;-4.70;1.00;-4.40;93155.00;;;;7399692;19;20168;-74
2022/12/11 04:00:13;;;;;;;36.10;18.13;;;-4.70;1.00;-4.30;93135.00;;;;7399719;19;20142;-73
2022/12/11 04:03:11;;;;;;;35.93;16.90;;;-4.70;1.00;-4.30;93151.00;;;;7399737;19;20626;-74
2022/12/11 04:05:50;;;;;;;37.77;17.63;;;-4.70;1.00;-4.30;93159.00;;;;7400380;19;20129;-74
2022/12/11 04:08:24;;;;;;;35.10;16.93;;;-4.70;1.00;-4.20;93139.00;;;;7398800;19;20603;-74
2022/12/11 04:13:43;;;;;;;31.23;15.67;;;-4.70;1.00;-4.60;93109.00;;;;7399072;19;20516;-74
2022/12/11 04:16:10;;;;;;;31.40;15.17;;;-4.70;1.00;-4.60;93116.00;;;;7398834;19;20599;-74
2022/12/11 04:24:14;;;;;;;31.00;15.13;;;-4.70;1.00;-4.50;93093.00;;;;7400699;19;20130;-74
2022/12/11 04:26:48;;;;;;;30.00;14.03;;;-4.80;99.90;-4.30;93086.00;;;;7399134;19;20129;-74
2022/12/11 04:29:15;;;;;;;29.17;14.77;;;-4.80;99.90;-4.30;93097.00;;;;7398363;19;20505;-74
2022/12/11 04:31:42;;;;;;;30.57;15.17;;;-4.80;99.90;-4.40;93077.00;;;;7396509;19;20130;-74
2022/12/11 04:34:16;;;;;;;31.87;14.97;;;-4.80;99.90;-4.50;93099.00;;;;7398961;19;20185;-74
2022/12/11 04:36:43;;;;;;;32.37;14.93;;;-4.80;99.90;-4.70;93100.00;;;;7399954;19;20129;-74
2022/12/11 04:39:10;;;;;;;33.40;14.03;;;-4.80;99.90;-4.50;93115.00;;;;7399834;19;20249;-74
2022/12/11 04:41:44;;;;;;;28.80;14.30;;;-4.80;99.90;-4.50;93120.00;;;;7395530;19;20134;-74
2022/12/11 04:44:11;;;;;;;26.80;13.57;;;-4.80;99.90;-4.70;93112.00;;;;7399378;19;20157;-74
2022/12/11 04:46:38;;;;;;;28.23;13.00;;;-4.80;99.90;-4.60;93122.00;;;;7397859;19;20162;-74
2022/12/11 04:49:11;;;;;;;26.70;12.70;;;-4.80;99.90;-4.50;93123.00;;;;7397245;19;20581;-74
2022/12/11 04:51:38;;;;;;;28.67;13.97;;;-4.70;99.90;-4.50;93119.00;;;;7398247;19;20158;-74
2022/12/11 04:54:05;;;;;;;26.97;12.60;;;-4.70;99.90;-4.60;93101.00;;;;7398531;19;20149;-74
2022/12/11 04:56:45;;;;;;;28.60;12.53;;;-4.70;99.90;-4.50;93111.00;;;;7397483;19;20150;-74
2022/12/11 04:59:12;;;;;;;28.10;12.37;;;-4.70;99.90;-4.40;93082.00;;;;7397847;19;20150;-74
2022/12/11 05:01:46;;;;;;;26.77;13.43;;;-4.70;99.90;-4.50;93114.00;;;;7399070;19;20161;-74
2022/12/11 05:04:13;;;;;;;26.07;12.50;;;-4.70;99.90;-4.60;93115.00;;;;7399540;19;20437;-74
2022/12/11 05:06:41;;;;;;;25.03;12.37;;;-4.70;99.90;-4.40;93109.00;;;;7397999;19;20126;-74
2022/12/11 05:09:15;;;;;;;23.90;12.37;;;-4.70;99.90;-4.50;93095.00;;;;7396828;19;20157;-74
2022/12/11 05:11:42;;;;;;;26.20;12.53;;;-4.70;99.90;-4.40;93107.00;;;;7395698;19;20621;-74
2022/12/11 05:14:09;;;;;;;25.90;12.93;;;-4.70;99.90;-4.50;93123.00;;;;7398168;19;20169;-74
2022/12/11 05:16:43;;;;;;;23.80;11.30;;;-4.70;99.90;-4.60;93123.00;;;;7397290;19;20201;-74
2022/12/11 05:19:10;;;;;;;22.20;11.57;;;-4.70;99.90;-4.60;93121.00;;;;7397299;19;20160;-74
2022/12/11 05:21:37;;;;;;;23.97;11.87;;;-4.60;99.90;-4.60;93104.00;;;;7396891;19;20145;-74
2022/12/11 05:24:11;;;;;;;25.93;11.20;;;-4.60;99.90;-4.60;93107.00;;;;7397089;19;20159;-73
2022/12/11 05:26:38;;;;;;;23.50;11.13;;;-4.60;99.90;-4.50;93094.00;;;;7397335;19;20168;-74
2022/12/11 05:29:05;;;;;;;21.67;11.03;;;-4.60;99.90;-4.50;93078.00;;;;7397898;19;20132;-74
2022/12/11 05:31:39;;;;;;;22.83;11.37;;;-4.70;99.90;-4.60;93110.00;;;;7396746;19;20449;-74
2022/12/11 05:34:06;;;;;;;22.07;10.77;;;-4.80;99.90;-4.60;93103.00;;;;7398501;19;20476;-74
2022/12/11 05:36:33;;;;;;;22.27;10.77;;;-4.80;99.90;-4.60;93095.00;;;;7397529;19;20144;-74
2022/12/11 05:39:08;;;;;;;19.17;10.53;;;-4.90;99.90;-4.70;93087.00;;;;7396707;19;20137;-74
2022/12/11 05:41:35;;;;;;;20.47;10.77;;;-4.90;99.90;-4.80;93091.00;;;;7396697;19;20137;-74
2022/12/11 05:44:02;;;;;;;19.87;10.47;;;-4.90;99.90;-4.80;93084.00;;;;7392869;19;20138;-74
2022/12/11 05:46:36;;;;;;;19.93;10.07;;;-5.00;99.90;-5.20;93082.00;;;;7397145;19;20141;-74
2022/12/11 05:49:03;;;;;;;19.77;9.77;;;-5.10;99.90;-5.20;93081.00;;;;7396437;19;20163;-74
2022/12/11 05:51:34;;;;;;;16.47;9.17;;;-5.20;62.50;-5.20;93086.00;;;;7396716;19;20147;-74
2022/12/11 05:54:16;;;;;;;15.40;8.67;;;-5.30;99.90;-5.30;93043.00;;;;7395405;19;20169;-75
2022/12/11 05:56:43;;;;;;;17.00;10.07;;;-5.30;99.90;-5.00;93076.00;;;;7396639;19;20165;-74
2022/12/11 05:59:18;;;;;;;20.00;9.73;;;-5.30;99.90;-5.10;93081.00;;;;7396784;19;20594;-75
2022/12/11 06:01:45;;;;;;;17.17;9.67;;;-5.30;99.90;-5.40;93034.00;;;;7399079;19;20130;-75
2022/12/11 06:04:13;;;;;;;24.00;8.87;;;-5.50;73.40;-5.50;93049.00;;;;7403921;19;20610;-74
2022/12/11 06:06:47;;;;;;;19.43;8.83;;;-5.60;4.10;-5.70;93055.00;;;;7404618;19;20116;-74
2022/12/11 06:09:16;;;;;;;14.70;8.60;;;-5.70;1.00;-5.80;93078.00;;;;7403463;19;20149;-74
2022/12/11 06:11:43;;;;;;;16.03;8.13;;;-5.80;1.00;-6.00;93064.00;;;;7402925;19;20637;-75
2022/12/11 06:14:17;;;;;;;15.17;8.70;;;-6.00;1.00;-6.00;93030.00;;;;7401916;19;20477;-74
2022/12/11 06:16:44;;;;;;;15.20;8.43;;;-6.00;1.00;-6.00;93043.00;;;;7403568;19;20121;-73
2022/12/11 06:19:17;;;;;;;14.30;7.77;;;-6.10;1.00;-6.00;93045.00;;;;7403553;19;20612;-74
2022/12/11 06:21:51;;;;;;;17.60;8.07;;;-6.20;1.00;-6.00;93069.00;;;;7402524;19;20602;-74
2022/12/11 06:24:18;;;;;;;16.33;7.50;;;-6.20;99.90;-6.10;93056.00;;;;7400125;19;20625;-74
2022/12/11 06:26:45;;;;;;;12.87;7.07;;;-6.30;99.90;-6.10;93037.00;;;;7402586;19;20137;-74
2022/12/11 06:29:19;;;;;;;15.40;7.60;;;-6.30;99.90;-6.10;93026.00;;;;7402830;19;20594;-74
2022/12/11 06:31:46;;;;;;;13.70;7.47;;;-6.30;99.90;-6.10;93051.00;;;;7400547;19;20457;-74
2022/12/11 06:34:13;;;;;;;15.10;6.90;;;-6.20;99.90;-6.20;93052.00;;;;7398030;19;20138;-74
2022/12/11 06:36:47;;;;;;;14.80;8.03;;;-6.30;99.90;-6.20;93056.00;;;;7402688;19;20627;-74
2022/12/11 06:39:14;;;;;;;12.40;6.73;;;-6.30;99.90;-6.10;93057.00;;;;7403319;19;20208;-73
2022/12/11 06:41:41;;;;;;;14.83;7.80;;;-6.30;99.90;-6.00;93060.00;;;;7402588;19;20149;-74
2022/12/11 06:44:15;;;;;;;15.27;7.57;;;-6.30;99.90;-5.90;93056.00;;;;7402266;19;20153;-74
2022/12/11 06:46:42;;;;;;;15.17;8.07;;;-6.20;99.90;-5.80;93043.00;;;;7402603;19;20166;-74
2022/12/11 06:49:09;;;;;;;17.27;7.90;;;-6.10;99.90;-5.80;93049.00;;;;7392766;19;20212;-73
2022/12/11 06:51:43;;;;;;;18.83;8.30;;;-6.10;99.90;-5.70;93075.00;;;;7399484;19;20133;-73
2022/12/11 06:54:17;;;;;;;15.57;8.00;;;-6.00;1.00;-5.60;93073.00;;;;7399619;19;20180;-74
2022/12/11 06:56:51;;;;;;;18.73;8.77;;;-5.90;1.00;-5.50;93047.00;;;;7403142;19;20144;-74
2022/12/11 06:59:19;;;;;;;15.50;8.70;;;-5.80;1.00;-5.20;93084.00;;;;7403122;19;20149;-74
2022/12/11 07:01:46;;;;;;;16.80;8.83;;;-5.60;1.00;-5.20;93083.00;;;;7402459;19;20449;-74
2022/12/11 07:04:23;;;;;;;14.53;7.33;;;-5.50;1.00;-5.10;93075.00;;;;7402993;19;20162;-74
2022/12/11 07:06:50;;;;;;;18.10;8.63;;;-5.40;1.00;-5.00;93080.00;;;;7403000;19;20125;-75
2022/12/11 07:09:18;;;;;;;18.13;8.43;;;-5.40;1.00;-5.00;93079.00;;;;7401919;19;20552;-75
2022/12/11 07:11:52;;;;;;;17.13;8.57;;;-5.30;1.00;-4.80;93086.00;;;;7402910;19;20136;-74
2022/12/11 07:14:20;;;;;;;20.27;8.17;;;-5.20;99.90;-4.80;93056.00;;;;7403133;19;20607;-75
2022/12/11 07:16:47;;;;;;;16.50;8.47;;;-5.20;99.90;-4.70;93062.00;;;;7402399;19;20141;-74
2022/12/11 07:19:21;;;;;;;15.67;7.83;;;-5.10;99.90;-4.70;93083.00;;;;7402074;19;20617;-74
2022/12/11 07:21:49;;;;;;;17.40;7.77;;;-5.10;99.90;-4.90;93078.00;;;;7402496;19;20137;-74
2022/12/11 07:24:18;;;;;;;17.83;8.77;;;-5.10;99.90;-4.80;93078.00;;;;7402377;19;20137;-74
2022/12/11 07:26:52;;;;;;;13.47;7.37;;;-5.00;99.90;-4.60;93088.00;;;;7403139;19;20196;-74
2022/12/11 07:29:19;;;;;;;15.10;7.30;;;-4.90;99.90;-4.60;93087.00;;;;7402234;19;20143;-74
2022/12/11 07:31:47;;;;;;;13.30;6.27;;;-4.90;99.90;-4.50;93084.00;;;;7400114;19;20638;-74
2022/12/11 07:34:20;;;;;;;18.00;6.73;;;-4.90;99.90;-4.50;93086.00;;;;7401861;19;20162;-74
2022/12/11 07:36:47;;;;;;;12.90;7.53;;;-4.90;95.20;-4.60;93090.00;;;;7402024;19;20143;-75
2022/12/11 07:39:15;;;;;;;14.27;7.20;;;-4.90;1.00;-4.70;93086.00;;;;7401382;19;20763;-74
2022/12/11 07:41:49;;;;;;;15.97;7.57;;;-4.90;1.00;-4.50;93054.00;;;;7397192;19;20154;-74
2022/12/11 07:44:17;;;;;;;14.40;7.13;;;-4.80;1.00;-4.20;93058.00;;;;7403275;19;20604;-75
2022/12/11 07:46:44;;;;;;;13.43;7.50;;;-4.70;1.00;-4.10;93054.00;;;;7401478;19;20612;-74
2022/12/11 07:49:19;;;;;;;11.73;6.83;;;-4.70;1.00;-3.90;93081.00;;;;7401973;19;20487;-74
2022/12/11 07:51:46;;;;;;;13.67;6.90;;;-4.50;23.10;-3.70;93078.00;;;;7399400;19;20668;-74
2022/12/11 07:54:15;;;;;;;14.47;7.47;;;-4.40;1.00;-3.40;93082.00;;;;7400114;19;20198;-74
2022/12/11 07:56:56;;;;;;;11.87;7.03;;;-4.30;1.00;-3.70;93059.00;;;;7401735;19;20169;-74
2022/12/11 07:59:23;;;;;;;18.07;7.70;;;-4.10;1.00;-3.30;93065.00;;;;7402598;19;20134;-74
2022/12/11 08:01:59;;;;;;;12.03;7.10;;;-4.00;1.00;-3.20;93069.00;;;;7401379;19;20529;-74
2022/12/11 08:04:26;;;;;;;13.73;6.50;;;-4.00;1.00;-3.40;93080.00;;;;7401008;19;20136;-74
2022/12/11 08:06:53;;;;;;;10.00;5.93;;;-3.90;1.00;-3.30;93085.00;;;;7400638;19;20175;-74
2022/12/11 08:09:27;;;;;;;12.47;6.97;;;-3.80;1.00;-3.20;93075.00;;;;7400172;19;20132;-74
2022/12/11 08:11:55;;;;;;;10.17;6.10;;;-3.70;1.00;-3.30;93095.00;;;;7398907;19;20481;-74
2022/12/11 08:14:22;;;;;;;13.43;7.07;;;-3.60;1.00;-3.10;93091.00;;;;7398932;19;20480;-74
2022/12/11 08:16:56;;;;;;;11.17;6.10;;;-3.60;99.90;-3.00;93068.00;;;;7401164;19;20140;-74
2022/12/11 08:19:24;;;;;;;14.03;7.63;;;-3.70;99.90;-3.00;93090.00;;;;7400183;19;20136;-73
2022/12/11 08:21:51;;;;;;;13.70;9.10;;;-3.70;99.90;-2.90;93084.00;;;;7400952;19;20198;-75
2022/12/11 08:24:26;;;;;;;10.00;5.93;;;-3.90;61.50;-3.20;93091.00;;;;7400326;19;20454;-74
2022/12/11 08:26:53;;;;;;;9.57;6.10;;;-3.90;99.90;-3.00;93091.00;;;;7399060;19;20667;-74
2022/12/11 08:29:21;;;;;;;11.53;6.20;;;-3.90;99.90;-3.40;93039.00;;;;7401002;19;20132;-74
2022/12/11 08:31:55;;;;;;;13.43;7.30;;;-3.90;99.90;-3.10;93093.00;;;;7397635;19;20150;-75
2022/12/11 08:34:23;;;;;;;10.60;6.77;;;-3.90;99.90;-3.20;93096.00;;;;7396183;19;20131;-75
2022/12/11 08:36:50;;;;;;;11.83;5.80;;;-3.80;99.90;-3.20;93102.00;;;;7401749;19;20483;-75
2022/12/11 08:39:24;;;;;;;17.03;7.97;;;-3.80;99.90;-3.00;93089.00;;;;7399774;19;20139;-74
2022/12/11 08:41:51;;;;;;;10.73;7.00;;;-3.80;99.90;-3.10;93100.00;;;;7399792;19;20140;-74
2022/12/11 08:44:19;;;;;;;9.87;6.00;;;-3.70;99.90;-2.80;93077.00;;;;7399473;19;20604;-75
2022/12/11 08:46:53;;;;;;;9.50;5.53;;;-3.60;99.90;-2.50;93052.00;;;;7399811;19;20139;-73
2022/12/11 08:49:20;;;;;;;12.63;6.27;;;-3.60;99.90;-2.80;93096.00;;;;7399376;19;20627;-75
2022/12/11 08:51:47;;;;;;;14.07;6.30;;;-3.60;99.90;-2.40;93089.00;;;;7398754;19;20121;-73
2022/12/11 08:54:28;;;;;;;9.23;5.47;;;-3.60;99.90;-2.60;93087.00;;;;7399847;19;20148;-75
2022/12/11 08:57:01;;;;;;;10.47;5.43;;;-3.50;99.90;-2.50;93090.00;;;;7399799;19;20147;-74
2022/12/11 08:59:35;;;;;;;9.13;5.47;;;-3.40;99.90;-2.80;93097.00;;;;7399072;19;20587;-74
2022/12/11 09:02:02;;;;;;;10.63;5.80;;;-3.40;99.90;-2.70;93084.00;;;;7398835;19;20151;-74
2022/12/11 09:04:29;;;;;;;10.77;5.87;;;-3.40;47.40;-2.80;93068.00;;;;7400907;19;20143;-74
2022/12/11 09:07:03;;;;;;;8.10;5.20;;;-3.30;99.90;-2.60;93068.00;;;;7398741;19;20164;-74
2022/12/11 09:09:30;;;;;;;11.27;5.53;;;-3.40;13.60;-2.40;93062.00;;;;7398948;19;20588;-74
2022/12/11 09:12:00;;;;;;;8.60;5.30;;;-3.40;1.00;-2.80;93064.00;;;;7397121;19;20147;-73
2022/12/11 09:14:34;;;;;;;13.43;6.10;;;-3.50;1.00;-3.10;93076.00;;;;7398824;19;20147;-74
2022/12/11 09:17:04;;;;;;;9.00;6.07;;;-3.60;52.30;-3.00;93091.00;;;;7399474;19;20160;-74
2022/12/11 09:19:31;;;;;;;10.47;5.80;;;-3.60;78.00;-3.20;93085.00;;;;7398163;19;20123;-73
2022/12/11 09:22:05;;;;;;;9.70;5.33;;;-3.60;99.90;-3.10;93075.00;;;;7398157;19;20122;-76
2022/12/11 09:24:32;;;;;;;10.77;5.80;;;-3.60;99.90;-3.00;93073.00;;;;7397674;19;20173;-74
2022/12/11 09:27:00;;;;;;;8.97;5.30;;;-3.60;99.90;-2.90;93043.00;;;;7397671;19;20151;-75
2022/12/11 09:29:33;;;;;;;7.87;4.90;;;-3.60;99.90;-2.70;93059.00;;;;7398944;19;20127;-74
2022/12/11 09:32:01;;;;;;;10.40;5.23;;;-3.50;99.90;-2.30;93071.00;;;;7396788;19;20151;-75
2022/12/11 09:34:28;;;;;;;10.27;5.30;;;-3.40;99.90;-2.10;93040.00;;;;7394117;19;20210;-75
2022/12/11 09:37:02;;;;;;;10.17;5.30;;;-3.20;43.80;-2.20;93066.00;;;;7402223;19;20145;-75
2022/12/11 09:39:30;;;;;;;9.47;5.13;;;-2.90;22.80;-2.10;93077.00;;;;7407256;19;20202;-75
2022/12/11 09:42:13;;;;;;;10.20;5.50;;;-2.60;1.00;-1.60;93051.00;;;;7407165;19;20128;-74
2022/12/11 09:44:54;;;;;;;9.93;5.10;;;-2.40;1.00;-0.40;93048.00;;;;7405360;19;20135;-75
2022/12/11 09:47:36;;;;;;;8.17;4.67;;;-1.80;94.10;-0.40;93056.00;;;;7404511;19;20131;-75
2022/12/11 09:50:10;;;;;;;7.07;4.40;;;-1.00;1.00;0.00;93054.00;;;;7404990;19;20140;-74
2022/12/11 09:52:43;;;;;;;7.40;4.23;;;-0.60;1.00;0.90;93043.00;;;;7405744;19;20121;-75
2022/12/11 09:55:29;;;;;;;6.53;4.50;;;-0.30;99.90;0.80;93038.00;;;;7402949;19;20534;-76
2022/12/11 09:58:26;;;;;;;7.67;4.63;;;0.20;1.00;1.60;93026.00;;;;7405103;19;20121;-78
2022/12/11 10:01:20;;;;;;;7.07;4.07;;;1.10;99.90;2.70;93029.00;;;;7405452;19;20128;-76
2022/12/11 10:04:03;;;;;;;7.00;4.57;;;1.20;1.00;1.70;93050.00;;;;7404725;19;20147;-77
2022/12/11 10:07:09;;;;;;;6.00;3.90;;;2.00;1.00;2.80;93013.00;;;;7404877;19;20145;-76
2022/12/11 10:09:37;;;;;;;5.43;3.33;;;2.30;99.90;2.70;93038.00;;;;7404583;19;20157;-76
2022/12/11 10:12:11;;;;;;;9.33;5.43;;;2.00;65.20;3.00;93048.00;;;;7402193;19;20179;-76
2022/12/11 10:15:28;;;;;;;10.20;6.37;;;1.50;23.90;1.40;93029.00;;;;7402323;19;20500;-75
2022/12/11 10:18:11;;;;;;;5.50;3.73;;;0.50;74.60;1.10;93048.00;;;;7401855;19;20128;-76
2022/12/11 10:20:41;;;;;;;8.53;3.87;;;-0.20;99.90;0.60;93006.00;;;;7403153;19;20137;-76
2022/12/11 10:23:29;;;;;;;4.47;3.73;;;-0.70;99.90;0.50;93022.00;;;;7402141;19;20152;-75
2022/12/11 10:26:09;;;;;;;5.13;3.47;;;-0.50;99.90;0.30;93001.00;;;;7400950;19;20460;-75
2022/12/11 10:28:43;;;;;;;7.33;3.50;;;-0.60;99.90;-0.40;93024.00;;;;7404299;19;20141;-74
2022/12/11 10:31:24;;;;;;;5.57;3.53;;;-0.40;99.90;-0.40;93032.00;;;;7401866;19;20145;-75
2022/12/11 10:34:07;;;;;;;4.70;3.17;;;-0.60;99.90;-0.80;93027.00;;;;7398848;19;20567;-75
2022/12/11 10:36:38;;;;;;;6.53;3.10;;;-0.60;99.90;-0.60;93002.00;;;;7402637;19;20493;-74
2022/12/11 10:39:19;;;;;;;5.43;3.13;;;-0.70;99.90;-0.20;93024.00;;;;7401985;19;20160;-76
2022/12/11 10:41:50;;;;;;;4.67;3.37;;;-1.00;99.90;-0.90;93000.00;;;;7402728;19;20136;-74
2022/12/11 10:44:29;;;;;;;6.53;3.40;;;-1.00;99.90;-0.40;93022.00;;;;7402218;19;20137;-75
2022/12/11 10:47:17;;;;;;;5.80;3.33;;;-1.20;99.90;-0.80;93019.00;;;;7400623;19;20149;-75
2022/12/11 10:49:59;;;;;;;7.87;4.00;;;-1.30;99.90;-0.50;92984.00;;;;7402151;19;20125;-76
2022/12/11 10:52:37;;;;;;;5.53;3.77;;;-1.40;99.90;-0.50;93015.00;;;;7401068;19;20145;-76
2022/12/11 10:55:30;;;;;;;5.60;3.30;;;-1.30;99.90;-0.20;93001.00;;;;7400622;19;20148;-75
2022/12/11 10:58:01;;;;;;;5.17;3.20;;;-1.50;99.90;-0.40;93008.00;;;;7403949;19;20124;-75
2022/12/11 11:00:40;;;;;;;6.50;3.97;;;-1.30;99.90;-0.70;93007.00;;;;7403104;19;20133;-76
2022/12/11 11:03:22;;;;;;;4.70;3.33;;;-1.20;99.90;-0.90;92990.00;;;;7401486;19;20129;-76
2022/12/11 11:06:14;;;;;;;5.13;3.20;;;-1.00;99.90;-1.00;92974.00;;;;7401743;19;20129;-75
2022/12/11 11:08:45;;;;;;;20.43;9.07;;;-0.90;99.90;-0.60;93007.00;;;;7401648;19;20129;-76
2022/12/11 11:11:32;;;;;;;6.83;3.73;;;-0.80;99.90;-0.40;93001.00;;;;7399412;19;20129;-76
2022/12/11 11:14:18;;;;;;;5.33;3.57;;;-0.80;99.90;-0.40;92983.00;;;;7400757;19;20157;-76
2022/12/11 11:16:56;;;;;;;5.23;3.43;;;-0.80;99.90;-0.20;92996.00;;;;7401453;19;20141;-76
2022/12/11 11:19:35;;;;;;;7.10;4.30;;;-1.00;99.90;-0.50;93007.00;;;;7400835;19;20144;-75
2022/12/11 11:22:17;;;;;;;13.03;7.60;;;-0.90;99.90;-0.30;92984.00;;;;7400782;19;20451;-76
2022/12/11 11:24:55;;;;;;;5.53;3.63;;;-0.80;99.90;-0.60;92993.00;;;;7402135;19;20128;-76
2022/12/11 11:27:39;;;;;;;5.33;3.97;;;-0.70;99.90;0.00;92997.00;;;;7393929;19;20216;-75
2022/12/11 11:30:29;;;;;;;6.53;4.70;;;-0.70;99.90;0.10;93001.00;;;;7396756;19;20136;-75